createdAt,value
2022-10-26T00:01:54.299Z,25.98
2022-10-26T00:04:22.936Z,28.27
2022-10-26T00:06:51.407Z,22.50
2022-10-26T00:09:20.191Z,23.13
2022-10-26T00:11:48.643Z,22.92
2022-10-26T00:14:17.444Z,23.75
2022-10-26T00:16:45.801Z,17.67
2022-10-26T00:19:14.643Z,19.42
2022-10-26T00:21:42.940Z,16.85
2022-10-26T00:26:44.083Z,20.00
2022-10-26T00:29:13.288Z,17.38
2022-10-26T00:31:41.574Z,15.60
2022-10-26T00:34:11.739Z,15.00
2022-10-26T00:36:41.219Z,14.98
2022-10-26T00:39:12.569Z,15.30
2022-10-26T00:41:40.913Z,14.37
2022-10-26T00:44:46.712Z,16.33
2022-10-26T00:51:45.018Z,14.00
2022-10-26T00:54:19.443Z,15.35
2022-10-26T00:56:51.800Z,15.75
2022-10-26T00:59:22.392Z,15.88
2022-10-26T01:01:52.230Z,18.25
2022-10-26T01:04:21.457Z,19.58
2022-10-26T01:06:51.446Z,19.33
2022-10-26T01:09:21.693Z,20.13
2022-10-26T01:11:51.072Z,20.85
2022-10-26T01:14:20.958Z,21.27
2022-10-26T01:17:29.498Z,21.45
2022-10-26T01:20:23.259Z,22.73
2022-10-26T01:23:12.923Z,21.83
2022-10-26T01:25:56.581Z,20.88
2022-10-26T01:29:00.682Z,20.38
2022-10-26T01:31:35.806Z,20.95
2022-10-26T01:34:12.825Z,21.02
2022-10-26T01:36:56.754Z,19.67
2022-10-26T01:40:06.554Z,21.90
2022-10-26T01:42:40.966Z,20.05
2022-10-26T01:45:11.767Z,19.85
2022-10-26T01:47:41.441Z,21.13
2022-10-26T01:50:11.687Z,21.70
2022-10-26T01:52:40.930Z,21.80
2022-10-26T01:55:46.967Z,20.33
2022-10-26T01:58:44.952Z,22.05
2022-10-26T02:01:36.402Z,22.52
2022-10-26T02:04:17.099Z,20.83
2022-10-26T02:07:09.392Z,20.45
2022-10-26T02:12:49.470Z,20.40
2022-10-26T02:15:25.336Z,20.80
2022-10-26T02:18:04.305Z,20.88
2022-10-26T02:20:43.480Z,20.63
2022-10-26T02:23:14.293Z,22.17
2022-10-26T02:25:55.839Z,20.70
2022-10-26T02:28:32.437Z,20.30
2022-10-26T02:31:05.044Z,21.55
2022-10-26T02:33:41.259Z,20.80
2022-10-26T02:36:14.365Z,19.33
2022-10-26T02:38:44.121Z,20.83
2022-10-26T02:41:16.236Z,22.00
2022-10-26T02:44:28.220Z,23.30
2022-10-26T02:46:57.956Z,23.48
2022-10-26T02:49:28.004Z,19.83
2022-10-26T02:52:12.596Z,21.77
2022-10-26T02:54:51.761Z,21.80
2022-10-26T02:57:45.734Z,20.48
2022-10-26T03:00:18.975Z,21.48
2022-10-26T03:02:55.701Z,23.13
2022-10-26T03:05:30.583Z,22.05
2022-10-26T03:08:00.682Z,24.98
2022-10-26T03:10:29.557Z,24.38
2022-10-26T03:12:59.027Z,25.15
2022-10-26T03:15:27.415Z,24.10
2022-10-26T03:17:59.391Z,26.08
2022-10-26T03:20:30.352Z,23.80
2022-10-26T03:22:58.943Z,23.23
2022-10-26T03:25:56.339Z,24.08
2022-10-26T03:28:25.505Z,23.88
2022-10-26T03:30:54.112Z,22.83
2022-10-26T03:33:25.615Z,22.50
2022-10-26T03:36:21.975Z,21.17
2022-10-26T03:38:50.850Z,20.05
2022-10-26T03:41:19.328Z,21.75
2022-10-26T03:43:48.692Z,20.17
2022-10-26T03:46:17.457Z,18.83
2022-10-26T03:48:46.212Z,18.80
2022-10-26T03:51:14.559Z,18.83
2022-10-26T03:53:52.487Z,19.50
2022-10-26T03:56:20.930Z,18.33
2022-10-26T03:58:49.619Z,17.92
2022-10-26T04:01:18.232Z,17.70
2022-10-26T04:03:46.917Z,19.38
2022-10-26T04:06:15.648Z,19.55
2022-10-26T04:08:46.511Z,20.75
2022-10-26T04:11:15.989Z,20.75
2022-10-26T04:13:47.987Z,20.15
2022-10-26T04:16:16.401Z,23.20
2022-10-26T04:18:45.140Z,24.02
2022-10-26T04:21:13.600Z,20.23
2022-10-26T04:23:42.506Z,20.65
2022-10-26T04:26:14.088Z,21.52
2022-10-26T04:31:11.448Z,20.23
2022-10-26T04:33:46.281Z,18.73
2022-10-26T04:36:18.251Z,20.60
2022-10-26T04:38:49.320Z,20.67
2022-10-26T04:41:17.851Z,21.50
2022-10-26T04:43:46.708Z,20.17
2022-10-26T04:46:16.794Z,20.17
2022-10-26T04:48:45.647Z,23.50
2022-10-26T04:51:16.384Z,26.92
2022-10-26T04:53:45.436Z,21.88
2022-10-26T04:56:13.948Z,20.60
2022-10-26T04:58:42.691Z,17.80
2022-10-26T05:01:11.230Z,18.52
2022-10-26T05:03:40.816Z,18.58
2022-10-26T05:06:09.210Z,18.98
2022-10-26T05:08:37.836Z,17.60
2022-10-26T05:11:06.208Z,19.17
2022-10-26T05:13:41.474Z,18.48
2022-10-26T05:16:18.577Z,17.08
2022-10-26T05:18:56.201Z,20.38
2022-10-26T05:21:24.735Z,19.48
2022-10-26T05:23:55.755Z,17.38
2022-10-26T05:26:25.813Z,18.08
2022-10-26T05:28:55.230Z,17.77
2022-10-26T05:31:23.651Z,19.20
2022-10-26T05:33:52.507Z,18.23
2022-10-26T05:36:21.464Z,17.80
2022-10-26T05:38:50.267Z,21.65
2022-10-26T05:41:19.164Z,17.25
2022-10-26T05:43:49.193Z,18.35
2022-10-26T05:46:18.369Z,18.83
2022-10-26T05:48:47.080Z,16.35
2022-10-26T05:51:16.856Z,17.15
2022-10-26T05:53:46.743Z,16.33
2022-10-26T05:56:32.287Z,17.48
2022-10-26T05:59:01.281Z,16.05
2022-10-26T06:01:38.590Z,15.38
2022-10-26T06:04:39.040Z,17.88
2022-10-26T06:07:17.339Z,18.73
2022-10-26T06:09:47.290Z,16.00
2022-10-26T06:12:19.257Z,16.52
2022-10-26T06:14:51.410Z,16.55
2022-10-26T06:17:41.732Z,17.23
2022-10-26T06:20:29.550Z,17.77
2022-10-26T06:23:12.972Z,15.38
2022-10-26T06:25:55.819Z,15.68
2022-10-26T06:28:34.418Z,16.33
2022-10-26T06:31:05.853Z,15.32
2022-10-26T06:33:35.992Z,15.75
2022-10-26T06:36:27.248Z,16.77
2022-10-26T06:39:04.919Z,16.35
2022-10-26T06:41:35.517Z,16.17
2022-10-26T06:44:06.263Z,19.77
2022-10-26T06:47:04.968Z,16.15
2022-10-26T06:49:50.106Z,16.23
2022-10-26T06:52:25.764Z,16.20
2022-10-26T06:54:57.061Z,15.10
2022-10-26T06:57:32.669Z,16.33
2022-10-26T07:00:03.063Z,15.70
2022-10-26T07:02:33.212Z,15.85
2022-10-26T07:05:01.715Z,16.33
2022-10-26T07:07:31.821Z,15.25
2022-10-26T07:10:00.180Z,16.20
2022-10-26T07:12:32.167Z,16.30
2022-10-26T07:15:02.543Z,18.25
2022-10-26T07:17:31.572Z,33.28
2022-10-26T07:19:59.949Z,24.77
2022-10-26T07:22:41.052Z,17.95
2022-10-26T07:25:12.603Z,16.42
2022-10-26T07:27:45.850Z,16.65
2022-10-26T07:30:14.967Z,17.35
2022-10-26T07:32:45.399Z,17.00
2022-10-26T07:35:14.772Z,17.05
2022-10-26T07:37:43.876Z,16.13
2022-10-26T07:40:12.487Z,17.42
2022-10-26T07:42:44.231Z,17.33
2022-10-26T07:45:15.734Z,16.85
2022-10-26T07:47:46.449Z,15.48
2022-10-26T07:50:15.063Z,15.75
2022-10-26T07:52:44.269Z,17.58
2022-10-26T07:55:14.213Z,16.80
2022-10-26T07:57:42.973Z,17.40
2022-10-26T08:00:14.557Z,16.92
2022-10-26T08:02:43.322Z,16.92
2022-10-26T08:05:11.804Z,16.48
2022-10-26T08:07:48.377Z,16.27
2022-10-26T08:10:17.121Z,16.70
2022-10-26T08:12:47.366Z,15.80
2022-10-26T08:15:16.032Z,15.80
2022-10-26T08:17:44.739Z,16.00
2022-10-26T08:20:13.150Z,16.27
2022-10-26T08:22:42.223Z,16.92
2022-10-26T08:25:10.638Z,16.65
2022-10-26T08:27:39.525Z,18.42
2022-10-26T08:30:08.884Z,15.88
2022-10-26T08:32:38.230Z,16.45
2022-10-26T08:35:06.978Z,16.45
2022-10-26T08:37:36.533Z,15.48
2022-10-26T08:40:05.312Z,16.33
2022-10-26T08:42:49.470Z,16.27
2022-10-26T08:45:39.268Z,15.55
2022-10-26T08:48:20.153Z,16.00
2022-10-26T08:50:53.712Z,15.60
2022-10-26T08:53:38.897Z,14.95
2022-10-26T08:56:22.465Z,14.38
2022-10-26T08:59:40.460Z,15.40
2022-10-26T09:02:15.058Z,15.20
2022-10-26T09:04:44.756Z,14.60
2022-10-26T09:07:19.353Z,15.20
2022-10-26T09:09:57.042Z,15.10
2022-10-26T09:12:30.146Z,14.38
2022-10-26T09:15:53.902Z,13.85
2022-10-26T09:18:39.485Z,13.45
2022-10-26T09:21:26.629Z,12.65
2022-10-26T09:24:22.519Z,12.57
2022-10-26T09:26:55.867Z,12.27
2022-10-26T09:29:33.891Z,12.15
2022-10-26T09:32:04.573Z,12.52
2022-10-26T09:34:43.184Z,11.95
2022-10-26T09:37:26.519Z,11.82
2022-10-26T09:40:13.693Z,12.52
2022-10-26T09:42:52.966Z,12.18
2022-10-26T09:45:29.499Z,12.15
2022-10-26T09:48:10.297Z,12.05
2022-10-26T09:50:44.080Z,13.07
2022-10-26T09:53:13.218Z,13.77
2022-10-26T09:55:47.492Z,13.15
2022-10-26T09:58:30.841Z,13.63
2022-10-26T10:01:01.769Z,13.88
2022-10-26T10:03:32.651Z,13.98
2022-10-26T10:06:19.764Z,13.40
2022-10-26T10:09:25.009Z,14.25
2022-10-26T10:12:03.386Z,14.50
2022-10-26T10:14:39.832Z,13.90
2022-10-26T10:17:23.056Z,13.93
2022-10-26T10:19:52.951Z,14.45
2022-10-26T10:22:25.837Z,14.40
2022-10-26T10:25:00.680Z,13.68
2022-10-26T10:27:31.028Z,13.52
2022-10-26T10:30:22.629Z,13.02
2022-10-26T10:33:12.978Z,14.52
2022-10-26T10:35:49.684Z,13.68
2022-10-26T10:38:21.291Z,15.13
2022-10-26T10:40:58.632Z,14.38
2022-10-26T10:43:27.591Z,14.90
2022-10-26T10:45:59.759Z,14.32
2022-10-26T10:48:29.518Z,14.60
2022-10-26T10:53:49.452Z,14.52
2022-10-26T10:56:35.004Z,14.23
2022-10-26T10:59:23.625Z,13.88
2022-10-26T11:02:04.629Z,14.23
2022-10-26T11:05:08.464Z,13.82
2022-10-26T11:07:52.992Z,14.48
2022-10-26T11:10:26.430Z,14.93
2022-10-26T11:13:02.481Z,14.38
2022-10-26T11:15:35.312Z,14.27
2022-10-26T11:18:15.975Z,15.32
2022-10-26T11:20:52.214Z,15.75
2022-10-26T11:23:26.171Z,15.50
2022-10-26T11:26:00.845Z,16.00
2022-10-26T11:28:41.206Z,15.07
2022-10-26T11:31:19.253Z,14.98
2022-10-26T11:34:21.973Z,14.45
2022-10-26T11:42:45.045Z,14.98
2022-10-26T11:45:31.236Z,14.85
2022-10-26T11:48:06.600Z,15.70
2022-10-26T11:55:24.219Z,14.98
2022-10-26T11:57:54.782Z,13.85
2022-10-26T12:00:23.797Z,14.77
2022-10-26T12:03:07.558Z,14.20
2022-10-26T12:05:41.247Z,14.82
2022-10-26T12:08:25.568Z,14.15
2022-10-26T12:13:51.359Z,13.80
2022-10-26T12:16:47.676Z,12.48
2022-10-26T12:19:47.494Z,14.40
2022-10-26T12:22:19.245Z,13.65
2022-10-26T12:25:12.459Z,14.75
2022-10-26T12:27:43.623Z,14.68
2022-10-26T12:30:12.772Z,14.85
2022-10-26T12:32:43.790Z,15.23
2022-10-26T12:35:32.303Z,14.27
2022-10-26T12:38:04.123Z,15.15
2022-10-26T12:43:16.557Z,14.85
2022-10-26T12:46:25.431Z,14.45
2022-10-26T12:48:56.944Z,14.65
2022-10-26T12:51:44.894Z,16.02
2022-10-26T12:54:37.447Z,14.80
2022-10-26T12:57:31.692Z,15.18
2022-10-26T13:00:06.151Z,15.45
2022-10-26T13:03:01.409Z,15.65
2022-10-26T13:06:03.477Z,15.93
2022-10-26T13:08:45.928Z,15.50
2022-10-26T13:11:46.327Z,15.70
2022-10-26T13:14:47.117Z,16.48
2022-10-26T13:17:26.366Z,15.45
2022-10-26T13:20:01.813Z,16.35
2022-10-26T13:22:31.636Z,16.58
2022-10-26T13:25:06.417Z,16.10
2022-10-26T13:27:35.165Z,16.38
2022-10-26T13:30:04.224Z,17.23
2022-10-26T13:32:48.551Z,17.33
2022-10-26T13:35:17.943Z,16.10
2022-10-26T13:37:49.721Z,15.48
2022-10-26T13:40:25.208Z,15.13
2022-10-26T13:43:04.528Z,15.20
2022-10-26T13:45:55.742Z,15.32
2022-10-26T13:48:31.835Z,16.02
2022-10-26T13:51:04.826Z,16.25
2022-10-26T13:53:41.216Z,16.02
2022-10-26T13:56:22.041Z,15.80
2022-10-26T13:58:55.548Z,15.18
2022-10-26T14:01:27.013Z,15.57
2022-10-26T14:03:55.901Z,14.97
2022-10-26T14:06:31.840Z,15.00
2022-10-26T14:09:13.563Z,15.25
2022-10-26T14:12:00.530Z,14.73
2022-10-26T14:14:38.218Z,14.70
2022-10-26T14:17:07.069Z,16.00
2022-10-26T14:19:39.751Z,15.52
2022-10-26T14:22:08.491Z,15.63
2022-10-26T14:24:48.394Z,15.55
2022-10-26T14:27:39.326Z,15.43
2022-10-26T14:30:32.841Z,16.48
2022-10-26T14:33:01.639Z,16.33
2022-10-26T14:35:37.904Z,17.45
2022-10-26T14:38:11.516Z,16.10
2022-10-26T14:40:40.081Z,15.45
2022-10-26T14:43:17.972Z,15.57
2022-10-26T14:46:25.108Z,15.75
2022-10-26T14:49:25.504Z,21.13
2022-10-26T14:52:06.331Z,17.05
2022-10-26T14:54:35.014Z,17.20
2022-10-26T14:57:08.872Z,21.52
2022-10-26T14:59:37.693Z,21.88
2022-10-26T15:02:26.158Z,21.77
2022-10-26T15:05:04.779Z,31.85
2022-10-26T15:07:38.518Z,30.45
2022-10-26T15:10:39.233Z,28.23
2022-10-26T15:13:31.311Z,28.38
2022-10-26T15:16:19.645Z,27.10
2022-10-26T15:19:12.417Z,26.67
2022-10-26T15:21:47.594Z,27.80
2022-10-26T15:24:38.487Z,33.40
2022-10-26T15:27:16.753Z,35.50
2022-10-26T15:29:50.232Z,46.90
2022-10-26T15:32:29.575Z,41.80
2022-10-26T15:35:19.811Z,42.42
2022-10-26T15:37:50.819Z,37.33
2022-10-26T15:40:20.045Z,37.95
2022-10-26T15:42:53.926Z,44.70
2022-10-26T15:45:30.411Z,41.42
2022-10-26T15:48:16.809Z,45.45
2022-10-26T15:50:45.625Z,45.38
2022-10-26T15:53:19.726Z,45.45
2022-10-26T15:56:23.810Z,45.78
2022-10-26T15:58:54.031Z,46.33
2022-10-26T16:01:25.935Z,45.33
2022-10-26T16:03:56.758Z,47.75
2022-10-26T16:06:29.560Z,52.83
2022-10-26T16:09:01.995Z,60.00
2022-10-26T16:11:30.938Z,62.75
2022-10-26T16:17:23.852Z,62.50
2022-10-26T16:19:52.406Z,71.72
2022-10-26T16:22:20.942Z,66.10
2022-10-26T16:26:04.417Z,70.72
2022-10-26T16:28:33.016Z,79.18
2022-10-26T16:31:03.947Z,70.72
2022-10-26T16:33:44.791Z,76.22
2022-10-26T16:36:13.882Z,77.90
2022-10-26T16:38:42.700Z,77.88
2022-10-26T16:41:36.747Z,80.00
2022-10-26T16:44:05.395Z,84.78
2022-10-26T16:46:35.241Z,75.80
2022-10-26T16:49:04.464Z,83.30
2022-10-26T16:51:37.184Z,79.20
2022-10-26T16:54:05.961Z,92.50
2022-10-26T16:56:34.671Z,90.47
2022-10-26T16:59:28.163Z,88.25
2022-10-26T17:01:57.339Z,84.60
2022-10-26T17:04:25.801Z,82.82
2022-10-26T17:06:56.409Z,81.55
2022-10-26T17:09:24.890Z,86.20
2022-10-26T17:11:55.470Z,81.18
2022-10-26T17:14:25.707Z,80.15
2022-10-26T17:16:54.285Z,82.90
2022-10-26T17:19:22.553Z,81.82
2022-10-26T17:21:51.172Z,79.47
2022-10-26T17:24:19.781Z,82.45
2022-10-26T17:26:48.607Z,74.13
2022-10-26T17:29:17.084Z,62.15
2022-10-26T17:31:45.869Z,73.72
2022-10-26T17:34:14.497Z,79.47
2022-10-26T17:36:43.198Z,75.32
2022-10-26T17:39:11.508Z,72.45
2022-10-26T17:41:40.281Z,69.47
2022-10-26T17:44:08.756Z,65.40
2022-10-26T17:46:37.694Z,83.70
2022-10-26T17:49:10.505Z,70.10
2022-10-26T17:52:13.224Z,76.97
2022-10-26T17:57:24.283Z,71.95
2022-10-26T17:59:52.691Z,68.18
2022-10-26T18:02:22.158Z,57.58
2022-10-26T18:04:52.152Z,59.42
2022-10-26T18:07:21.232Z,64.93
2022-10-26T18:10:38.461Z,63.15
2022-10-26T18:13:07.612Z,64.47
2022-10-26T18:15:37.568Z,70.30
2022-10-26T18:18:08.648Z,87.32
2022-10-26T18:20:37.762Z,82.93
2022-10-26T18:23:31.755Z,93.55
2022-10-26T18:29:22.421Z,96.30
2022-10-26T18:31:50.922Z,93.88
2022-10-26T18:34:20.499Z,104.68
2022-10-26T18:36:48.945Z,110.05
2022-10-26T18:39:20.631Z,119.25
2022-10-26T18:41:49.195Z,134.23
2022-10-26T18:44:19.667Z,171.13
2022-10-26T18:46:52.140Z,156.52
2022-10-26T18:49:20.856Z,156.25
2022-10-26T18:51:49.250Z,176.25
2022-10-26T18:54:17.808Z,165.20
2022-10-26T18:56:46.324Z,136.70
2022-10-26T18:59:18.156Z,177.20
2022-10-26T19:01:47.301Z,182.05
2022-10-26T19:04:19.084Z,174.35
2022-10-26T19:06:48.103Z,167.80
2022-10-26T19:09:18.996Z,156.75
2022-10-26T19:11:47.732Z,155.48
2022-10-26T19:14:16.286Z,156.23
2022-10-26T19:16:46.799Z,158.32
2022-10-26T19:19:19.169Z,160.80
2022-10-26T19:21:49.809Z,160.73
2022-10-26T19:24:20.933Z,176.60
2022-10-26T19:26:50.753Z,202.50
2022-10-26T19:29:29.827Z,208.05
2022-10-26T19:32:00.548Z,169.80
2022-10-26T19:34:29.576Z,166.00
2022-10-26T19:37:01.194Z,157.32
2022-10-26T19:39:31.333Z,148.18
2022-10-26T19:42:00.730Z,145.13
2022-10-26T19:44:29.525Z,138.40
2022-10-26T19:46:58.838Z,130.05
2022-10-26T19:49:30.330Z,105.88
2022-10-26T19:52:01.766Z,93.93
2022-10-26T19:54:34.311Z,112.82
2022-10-26T19:57:02.995Z,111.07
2022-10-26T19:59:31.535Z,125.50
2022-10-26T20:02:00.917Z,119.20
2022-10-26T20:04:29.798Z,120.47
2022-10-26T20:06:58.247Z,112.05
2022-10-26T20:09:27.780Z,106.70
2022-10-26T20:11:56.255Z,101.72
2022-10-26T20:14:25.123Z,98.88
2022-10-26T20:16:55.537Z,94.70
2022-10-26T20:19:25.169Z,91.70
2022-10-26T20:21:53.603Z,88.18
2022-10-26T20:24:47.076Z,123.60
2022-10-26T20:27:15.473Z,107.38
2022-10-26T20:29:44.577Z,98.53
2022-10-26T20:32:15.775Z,105.95
2022-10-26T20:34:46.490Z,105.35
2022-10-26T20:37:15.316Z,101.65
2022-10-26T20:39:44.404Z,82.50
2022-10-26T20:42:24.675Z,90.13
2022-10-26T20:45:16.699Z,85.65
2022-10-26T20:47:45.793Z,104.88
2022-10-26T20:50:16.117Z,107.45
2022-10-26T20:52:58.259Z,97.90
2022-10-26T20:55:57.236Z,89.40
2022-10-26T20:58:37.787Z,80.32
2022-10-26T21:01:29.028Z,78.25
2022-10-26T21:04:00.555Z,59.25
2022-10-26T21:06:29.584Z,81.65
2022-10-26T21:08:58.070Z,77.60
2022-10-26T21:11:26.823Z,66.53
2022-10-26T21:13:55.695Z,58.42
2022-10-26T21:16:50.372Z,60.70
2022-10-26T21:22:02.844Z,53.95
2022-10-26T21:24:31.432Z,51.63
2022-10-26T21:27:00.268Z,59.78
2022-10-26T21:29:28.719Z,55.72
2022-10-26T21:31:57.245Z,66.10
2022-10-26T21:34:26.076Z,53.60
2022-10-26T21:36:54.876Z,59.90
2022-10-26T21:39:23.383Z,53.13
2022-10-26T21:41:51.984Z,51.88
2022-10-26T21:44:40.086Z,52.38
2022-10-26T21:47:11.018Z,48.97
2022-10-26T21:52:09.608Z,49.90
2022-10-26T21:54:38.274Z,54.25
2022-10-26T21:57:06.900Z,59.67
2022-10-26T21:59:38.548Z,68.35
2022-10-26T22:02:11.426Z,52.40
2022-10-26T22:04:40.036Z,56.72
2022-10-26T22:07:08.824Z,53.47
2022-10-26T22:09:45.019Z,51.70
2022-10-26T22:12:26.313Z,53.42
2022-10-26T22:15:20.421Z,41.35
2022-10-26T22:17:49.674Z,40.15
2022-10-26T22:20:18.749Z,44.70
2022-10-26T22:22:47.264Z,49.13
2022-10-26T22:25:15.880Z,50.92
2022-10-26T22:27:44.548Z,47.55
2022-10-26T22:30:13.061Z,60.03
2022-10-26T22:32:41.713Z,47.97
2022-10-26T22:35:28.411Z,38.13
2022-10-26T22:37:57.886Z,40.50
2022-10-26T22:40:26.389Z,47.95
2022-10-26T22:42:58.583Z,48.33
2022-10-26T22:47:55.774Z,38.42
2022-10-26T22:50:25.163Z,48.05
2022-10-26T22:52:54.003Z,40.25
2022-10-26T22:55:22.638Z,43.75
2022-10-26T22:57:51.601Z,41.67
2022-10-26T23:00:20.266Z,37.53
2022-10-26T23:02:48.862Z,38.53
2022-10-26T23:05:17.257Z,42.55
2022-10-26T23:07:45.888Z,52.20
2022-10-26T23:10:14.298Z,49.58
2022-10-26T23:12:43.039Z,50.35
2022-10-26T23:15:11.807Z,49.25
2022-10-26T23:17:40.627Z,48.00
2022-10-26T23:20:10.204Z,54.13
2022-10-26T23:22:39.031Z,48.22
2022-10-26T23:25:07.639Z,50.53
2022-10-26T23:27:36.313Z,52.83
2022-10-26T23:30:05.335Z,49.30
2022-10-26T23:32:33.903Z,45.42
2022-10-26T23:35:02.320Z,50.05
2022-10-26T23:37:31.061Z,43.40
2022-10-26T23:39:59.948Z,41.05
2022-10-26T23:42:28.701Z,48.38
2022-10-26T23:44:57.216Z,41.00
2022-10-26T23:47:26.002Z,40.72
2022-10-26T23:49:54.430Z,50.83
2022-10-26T23:52:23.307Z,45.40
2022-10-26T23:54:51.775Z,41.53
2022-10-26T23:57:20.311Z,37.92
2022-10-26T23:59:48.906Z,43.67
